sensor_id;sensor_type;location;lat;lon;timestamp;P1;durP1;ratioP1;P2;durP2;ratioP2
2522;SDS011;1272;53.332;9.860;2022-10-16T00:01:57;4.90;;;4.10;;
2522;SDS011;1272;53.332;9.860;2022-10-16T00:04:23;6.93;;;4.53;;
2522;SDS011;1272;53.332;9.860;2022-10-16T00:06:48;5.57;;;3.83;;
2522;SDS011;1272;53.332;9.860;2022-10-16T00:09:14;3.80;;;3.30;;
2522;SDS011;1272;53.332;9.860;2022-10-16T00:11:40;3.40;;;3.10;;
2522;SDS011;1272;53.332;9.860;2022-10-16T00:14:07;4.87;;;4.40;;
2522;SDS011;1272;53.332;9.860;2022-10-16T00:16:35;3.60;;;3.30;;
2522;SDS011;1272;53.332;9.860;2022-10-16T00:19:01;3.83;;;3.50;;
2522;SDS011;1272;53.332;9.860;2022-10-16T00:21:28;3.67;;;3.33;;
2522;SDS011;1272;53.332;9.860;2022-10-16T00:23:56;3.50;;;3.17;;
2522;SDS011;1272;53.332;9.860;2022-10-16T00:26:24;6.50;;;3.67;;
2522;SDS011;1272;53.332;9.860;2022-10-16T00:28:51;3.50;;;3.30;;
2522;SDS011;1272;53.332;9.860;2022-10-16T00:31:18;3.40;;;3.10;;
2522;SDS011;1272;53.332;9.860;2022-10-16T00:33:44;3.43;;;3.10;;
2522;SDS011;1272;53.332;9.860;2022-10-16T00:36:12;3.70;;;3.40;;
2522;SDS011;1272;53.332;9.860;2022-10-16T00:38:39;3.43;;;3.17;;
2522;SDS011;1272;53.332;9.860;2022-10-16T00:41:06;5.30;;;3.53;;
2522;SDS011;1272;53.332;9.860;2022-10-16T00:43:36;3.97;;;3.70;;
2522;SDS011;1272;53.332;9.860;2022-10-16T00:46:07;4.80;;;3.13;;
2522;SDS011;1272;53.332;9.860;2022-10-16T00:51:34;3.83;;;3.23;;
2522;SDS011;1272;53.332;9.860;2022-10-16T00:54:07;4.03;;;3.73;;
2522;SDS011;1272;53.332;9.860;2022-10-16T00:56:35;6.60;;;3.13;;
2522;SDS011;1272;53.332;9.860;2022-10-16T00:59:15;3.80;;;3.50;;
2522;SDS011;1272;53.332;9.860;2022-10-16T01:01:49;5.00;;;3.13;;
2522;SDS011;1272;53.332;9.860;2022-10-16T01:04:16;3.27;;;2.97;;
2522;SDS011;1272;53.332;9.860;2022-10-16T01:06:56;2.97;;;2.73;;
2522;SDS011;1272;53.332;9.860;2022-10-16T01:09:29;3.63;;;2.43;;
2522;SDS011;1272;53.332;9.860;2022-10-16T01:14:48;3.30;;;2.90;;
2522;SDS011;1272;53.332;9.860;2022-10-16T01:17:29;2.47;;;2.37;;
2522;SDS011;1272;53.332;9.860;2022-10-16T01:22:53;4.87;;;2.57;;
2522;SDS011;1272;53.332;9.860;2022-10-16T01:25:36;7.90;;;3.20;;
2522;SDS011;1272;53.332;9.860;2022-10-16T01:28:14;3.57;;;2.20;;
2522;SDS011;1272;53.332;9.860;2022-10-16T01:30:42;1.87;;;1.77;;
2522;SDS011;1272;53.332;9.860;2022-10-16T01:33:12;2.10;;;1.90;;
2522;SDS011;1272;53.332;9.860;2022-10-16T01:35:47;2.40;;;2.20;;
2522;SDS011;1272;53.332;9.860;2022-10-16T01:41:04;2.93;;;2.20;;
2522;SDS011;1272;53.332;9.860;2022-10-16T01:43:43;2.07;;;1.97;;
2522;SDS011;1272;53.332;9.860;2022-10-16T01:46:14;4.83;;;2.20;;
2522;SDS011;1272;53.332;9.860;2022-10-16T01:48:43;1.80;;;1.70;;
2522;SDS011;1272;53.332;9.860;2022-10-16T01:51:10;4.60;;;2.70;;
2522;SDS011;1272;53.332;9.860;2022-10-16T01:53:41;2.10;;;1.90;;
2522;SDS011;1272;53.332;9.860;2022-10-16T01:56:12;4.10;;;2.00;;
2522;SDS011;1272;53.332;9.860;2022-10-16T01:58:45;2.13;;;2.03;;
2522;SDS011;1272;53.332;9.860;2022-10-16T02:01:14;2.53;;;2.43;;
2522;SDS011;1272;53.332;9.860;2022-10-16T02:03:43;2.40;;;2.13;;
2522;SDS011;1272;53.332;9.860;2022-10-16T02:06:11;7.03;;;1.87;;
2522;SDS011;1272;53.332;9.860;2022-10-16T02:08:37;2.57;;;1.80;;
2522;SDS011;1272;53.332;9.860;2022-10-16T02:11:05;2.50;;;1.97;;
2522;SDS011;1272;53.332;9.860;2022-10-16T02:13:39;2.30;;;2.03;;
2522;SDS011;1272;53.332;9.860;2022-10-16T02:16:17;1.70;;;1.60;;
2522;SDS011;1272;53.332;9.860;2022-10-16T02:18:43;1.90;;;1.43;;
2522;SDS011;1272;53.332;9.860;2022-10-16T02:21:33;1.80;;;1.70;;
2522;SDS011;1272;53.332;9.860;2022-10-16T02:27:10;1.90;;;1.80;;
2522;SDS011;1272;53.332;9.860;2022-10-16T02:29:42;2.70;;;1.83;;
2522;SDS011;1272;53.332;9.860;2022-10-16T02:32:15;2.90;;;2.40;;
2522;SDS011;1272;53.332;9.860;2022-10-16T02:34:44;5.73;;;2.40;;
2522;SDS011;1272;53.332;9.860;2022-10-16T02:37:12;2.13;;;1.93;;
2522;SDS011;1272;53.332;9.860;2022-10-16T02:39:38;1.77;;;1.60;;
2522;SDS011;1272;53.332;9.860;2022-10-16T02:42:09;2.27;;;1.80;;
2522;SDS011;1272;53.332;9.860;2022-10-16T02:44:36;2.10;;;1.90;;
2522;SDS011;1272;53.332;9.860;2022-10-16T02:47:02;2.10;;;1.80;;
2522;SDS011;1272;53.332;9.860;2022-10-16T02:49:28;6.90;;;2.20;;
2522;SDS011;1272;53.332;9.860;2022-10-16T02:51:53;1.90;;;1.80;;
2522;SDS011;1272;53.332;9.860;2022-10-16T02:54:19;5.73;;;2.37;;
2522;SDS011;1272;53.332;9.860;2022-10-16T02:56:45;1.77;;;1.67;;
2522;SDS011;1272;53.332;9.860;2022-10-16T02:59:11;3.83;;;1.60;;
2522;SDS011;1272;53.332;9.860;2022-10-16T03:01:36;2.47;;;2.27;;
2522;SDS011;1272;53.332;9.860;2022-10-16T03:04:02;3.53;;;2.30;;
2522;SDS011;1272;53.332;9.860;2022-10-16T03:06:28;2.10;;;2.00;;
2522;SDS011;1272;53.332;9.860;2022-10-16T03:08:53;4.00;;;2.07;;
2522;SDS011;1272;53.332;9.860;2022-10-16T03:11:19;4.17;;;2.17;;
2522;SDS011;1272;53.332;9.860;2022-10-16T03:13:44;2.67;;;2.27;;
2522;SDS011;1272;53.332;9.860;2022-10-16T03:16:10;2.60;;;2.00;;
2522;SDS011;1272;53.332;9.860;2022-10-16T03:18:36;2.40;;;2.20;;
2522;SDS011;1272;53.332;9.860;2022-10-16T03:21:01;2.40;;;2.20;;
2522;SDS011;1272;53.332;9.860;2022-10-16T03:23:27;3.83;;;1.83;;
2522;SDS011;1272;53.332;9.860;2022-10-16T03:25:53;1.90;;;1.80;;
2522;SDS011;1272;53.332;9.860;2022-10-16T03:28:19;2.07;;;1.97;;
2522;SDS011;1272;53.332;9.860;2022-10-16T03:30:45;4.30;;;2.70;;
2522;SDS011;1272;53.332;9.860;2022-10-16T03:33:10;3.03;;;2.30;;
2522;SDS011;1272;53.332;9.860;2022-10-16T03:35:37;2.70;;;2.00;;
2522;SDS011;1272;53.332;9.860;2022-10-16T03:38:02;2.13;;;2.00;;
2522;SDS011;1272;53.332;9.860;2022-10-16T03:40:28;4.40;;;2.30;;
2522;SDS011;1272;53.332;9.860;2022-10-16T03:42:54;1.67;;;1.57;;
2522;SDS011;1272;53.332;9.860;2022-10-16T03:45:22;2.17;;;1.77;;
2522;SDS011;1272;53.332;9.860;2022-10-16T03:47:48;5.70;;;1.90;;
2522;SDS011;1272;53.332;9.860;2022-10-16T03:50:14;3.00;;;1.73;;
2522;SDS011;1272;53.332;9.860;2022-10-16T03:52:40;5.60;;;2.10;;
2522;SDS011;1272;53.332;9.860;2022-10-16T03:55:05;1.90;;;1.80;;
2522;SDS011;1272;53.332;9.860;2022-10-16T03:57:32;2.87;;;1.67;;
2522;SDS011;1272;53.332;9.860;2022-10-16T03:59:57;2.73;;;2.20;;
2522;SDS011;1272;53.332;9.860;2022-10-16T04:02:23;3.97;;;1.90;;
2522;SDS011;1272;53.332;9.860;2022-10-16T04:04:48;2.70;;;1.93;;
2522;SDS011;1272;53.332;9.860;2022-10-16T04:07:14;2.93;;;2.27;;
2522;SDS011;1272;53.332;9.860;2022-10-16T04:09:40;5.23;;;2.00;;
2522;SDS011;1272;53.332;9.860;2022-10-16T04:12:05;2.53;;;2.30;;
2522;SDS011;1272;53.332;9.860;2022-10-16T04:14:31;4.10;;;2.37;;
2522;SDS011;1272;53.332;9.860;2022-10-16T04:16:57;2.50;;;2.23;;
2522;SDS011;1272;53.332;9.860;2022-10-16T04:19:22;2.87;;;2.33;;
2522;SDS011;1272;53.332;9.860;2022-10-16T04:21:48;3.00;;;2.80;;
2522;SDS011;1272;53.332;9.860;2022-10-16T04:24:13;4.80;;;2.87;;
2522;SDS011;1272;53.332;9.860;2022-10-16T04:26:39;2.97;;;2.60;;
2522;SDS011;1272;53.332;9.860;2022-10-16T04:29:05;2.90;;;2.30;;
2522;SDS011;1272;53.332;9.860;2022-10-16T04:31:32;5.07;;;2.87;;
2522;SDS011;1272;53.332;9.860;2022-10-16T04:33:58;4.60;;;2.73;;
2522;SDS011;1272;53.332;9.860;2022-10-16T04:36:23;3.17;;;2.87;;
2522;SDS011;1272;53.332;9.860;2022-10-16T04:38:49;2.70;;;2.60;;
2522;SDS011;1272;53.332;9.860;2022-10-16T04:41:14;3.13;;;2.70;;
2522;SDS011;1272;53.332;9.860;2022-10-16T04:43:40;3.83;;;2.33;;
2522;SDS011;1272;53.332;9.860;2022-10-16T04:46:08;5.10;;;2.63;;
2522;SDS011;1272;53.332;9.860;2022-10-16T04:48:35;3.13;;;2.67;;
2522;SDS011;1272;53.332;9.860;2022-10-16T04:51:00;4.07;;;2.40;;
2522;SDS011;1272;53.332;9.860;2022-10-16T04:53:26;2.40;;;2.27;;
2522;SDS011;1272;53.332;9.860;2022-10-16T04:55:52;3.60;;;3.00;;
2522;SDS011;1272;53.332;9.860;2022-10-16T04:58:17;2.57;;;2.23;;
2522;SDS011;1272;53.332;9.860;2022-10-16T05:00:44;3.17;;;2.97;;
2522;SDS011;1272;53.332;9.860;2022-10-16T05:03:11;7.53;;;2.63;;
2522;SDS011;1272;53.332;9.860;2022-10-16T05:05:42;2.33;;;2.20;;
2522;SDS011;1272;53.332;9.860;2022-10-16T05:08:09;4.57;;;2.90;;
2522;SDS011;1272;53.332;9.860;2022-10-16T05:10:35;2.80;;;2.57;;
2522;SDS011;1272;53.332;9.860;2022-10-16T05:13:01;2.87;;;2.50;;
2522;SDS011;1272;53.332;9.860;2022-10-16T05:15:26;2.43;;;2.23;;
2522;SDS011;1272;53.332;9.860;2022-10-16T05:17:54;3.37;;;2.30;;
2522;SDS011;1272;53.332;9.860;2022-10-16T05:20:20;4.97;;;2.73;;
2522;SDS011;1272;53.332;9.860;2022-10-16T05:22:46;2.50;;;2.27;;
2522;SDS011;1272;53.332;9.860;2022-10-16T05:25:12;2.77;;;2.43;;
2522;SDS011;1272;53.332;9.860;2022-10-16T05:27:37;2.43;;;2.33;;
2522;SDS011;1272;53.332;9.860;2022-10-16T05:30:03;2.90;;;2.70;;
2522;SDS011;1272;53.332;9.860;2022-10-16T05:32:29;2.50;;;2.40;;
2522;SDS011;1272;53.332;9.860;2022-10-16T05:34:55;5.30;;;2.73;;
2522;SDS011;1272;53.332;9.860;2022-10-16T05:37:20;2.77;;;2.57;;
2522;SDS011;1272;53.332;9.860;2022-10-16T05:39:49;2.97;;;2.77;;
2522;SDS011;1272;53.332;9.860;2022-10-16T05:42:14;3.70;;;2.90;;
2522;SDS011;1272;53.332;9.860;2022-10-16T05:44:40;3.27;;;2.23;;
2522;SDS011;1272;53.332;9.860;2022-10-16T05:47:06;4.83;;;2.20;;
2522;SDS011;1272;53.332;9.860;2022-10-16T05:49:31;2.50;;;2.30;;
2522;SDS011;1272;53.332;9.860;2022-10-16T05:51:59;2.60;;;2.40;;
2522;SDS011;1272;53.332;9.860;2022-10-16T05:54:25;5.10;;;3.23;;
2522;SDS011;1272;53.332;9.860;2022-10-16T05:56:50;4.53;;;2.70;;
2522;SDS011;1272;53.332;9.860;2022-10-16T05:59:16;2.70;;;2.50;;
2522;SDS011;1272;53.332;9.860;2022-10-16T06:01:41;3.60;;;2.20;;
2522;SDS011;1272;53.332;9.860;2022-10-16T06:04:08;3.40;;;3.00;;
2522;SDS011;1272;53.332;9.860;2022-10-16T06:06:34;4.83;;;2.80;;
2522;SDS011;1272;53.332;9.860;2022-10-16T06:09:02;5.10;;;3.83;;
2522;SDS011;1272;53.332;9.860;2022-10-16T06:11:29;6.10;;;3.23;;
2522;SDS011;1272;53.332;9.860;2022-10-16T06:13:56;5.23;;;3.23;;
2522;SDS011;1272;53.332;9.860;2022-10-16T06:16:25;4.40;;;3.00;;
2522;SDS011;1272;53.332;9.860;2022-10-16T06:18:52;3.00;;;2.87;;
2522;SDS011;1272;53.332;9.860;2022-10-16T06:21:22;3.07;;;2.87;;
2522;SDS011;1272;53.332;9.860;2022-10-16T06:23:52;4.00;;;3.50;;
2522;SDS011;1272;53.332;9.860;2022-10-16T06:26:20;7.93;;;4.80;;
2522;SDS011;1272;53.332;9.860;2022-10-16T06:28:47;5.30;;;4.00;;
2522;SDS011;1272;53.332;9.860;2022-10-16T06:31:13;5.53;;;4.20;;
2522;SDS011;1272;53.332;9.860;2022-10-16T06:33:40;8.67;;;4.40;;
2522;SDS011;1272;53.332;9.860;2022-10-16T06:38:36;4.37;;;4.07;;
2522;SDS011;1272;53.332;9.860;2022-10-16T06:41:02;5.07;;;4.57;;
2522;SDS011;1272;53.332;9.860;2022-10-16T06:43:30;4.97;;;4.53;;
2522;SDS011;1272;53.332;9.860;2022-10-16T06:46:02;5.50;;;5.00;;
2522;SDS011;1272;53.332;9.860;2022-10-16T06:48:29;5.97;;;4.63;;
2522;SDS011;1272;53.332;9.860;2022-10-16T06:51:03;6.07;;;4.70;;
2522;SDS011;1272;53.332;9.860;2022-10-16T06:53:35;10.93;;;4.43;;
2522;SDS011;1272;53.332;9.860;2022-10-16T06:56:19;4.70;;;4.20;;
2522;SDS011;1272;53.332;9.860;2022-10-16T06:58:46;5.80;;;5.30;;
2522;SDS011;1272;53.332;9.860;2022-10-16T07:01:12;7.37;;;5.50;;
2522;SDS011;1272;53.332;9.860;2022-10-16T07:03:39;5.10;;;4.60;;
2522;SDS011;1272;53.332;9.860;2022-10-16T07:06:08;8.00;;;5.00;;
2522;SDS011;1272;53.332;9.860;2022-10-16T07:08:36;8.27;;;5.87;;
2522;SDS011;1272;53.332;9.860;2022-10-16T07:11:04;5.00;;;4.50;;
2522;SDS011;1272;53.332;9.860;2022-10-16T07:13:35;8.83;;;5.30;;
2522;SDS011;1272;53.332;9.860;2022-10-16T07:16:05;5.87;;;4.13;;
2522;SDS011;1272;53.332;9.860;2022-10-16T07:18:34;5.93;;;4.30;;
2522;SDS011;1272;53.332;9.860;2022-10-16T07:21:05;4.40;;;4.00;;
2522;SDS011;1272;53.332;9.860;2022-10-16T07:23:31;5.23;;;4.70;;
2522;SDS011;1272;53.332;9.860;2022-10-16T07:25:57;4.60;;;4.20;;
2522;SDS011;1272;53.332;9.860;2022-10-16T07:28:23;5.03;;;4.53;;
2522;SDS011;1272;53.332;9.860;2022-10-16T07:30:48;5.80;;;4.27;;
2522;SDS011;1272;53.332;9.860;2022-10-16T07:33:14;6.50;;;4.57;;
2522;SDS011;1272;53.332;9.860;2022-10-16T07:38:16;7.87;;;3.70;;
2522;SDS011;1272;53.332;9.860;2022-10-16T07:40:42;4.97;;;4.53;;
2522;SDS011;1272;53.332;9.860;2022-10-16T07:43:08;4.47;;;4.07;;
2522;SDS011;1272;53.332;9.860;2022-10-16T07:45:33;4.00;;;3.60;;
2522;SDS011;1272;53.332;9.860;2022-10-16T07:47:59;3.87;;;3.60;;
2522;SDS011;1272;53.332;9.860;2022-10-16T07:50:25;3.67;;;3.47;;
2522;SDS011;1272;53.332;9.860;2022-10-16T07:52:50;3.27;;;3.07;;
2522;SDS011;1272;53.332;9.860;2022-10-16T07:55:16;5.17;;;3.47;;
2522;SDS011;1272;53.332;9.860;2022-10-16T07:57:42;4.37;;;3.27;;
2522;SDS011;1272;53.332;9.860;2022-10-16T08:00:08;8.40;;;3.50;;
2522;SDS011;1272;53.332;9.860;2022-10-16T08:02:38;3.80;;;3.30;;
2522;SDS011;1272;53.332;9.860;2022-10-16T08:05:05;3.57;;;2.93;;
2522;SDS011;1272;53.332;9.860;2022-10-16T08:07:31;3.97;;;3.50;;
2522;SDS011;1272;53.332;9.860;2022-10-16T08:09:58;3.63;;;3.43;;
2522;SDS011;1272;53.332;9.860;2022-10-16T08:12:25;4.20;;;2.80;;
2522;SDS011;1272;53.332;9.860;2022-10-16T08:14:51;3.30;;;3.00;;
2522;SDS011;1272;53.332;9.860;2022-10-16T08:17:17;3.77;;;2.83;;
2522;SDS011;1272;53.332;9.860;2022-10-16T08:19:45;3.30;;;3.00;;
2522;SDS011;1272;53.332;9.860;2022-10-16T08:22:12;3.47;;;2.83;;
2522;SDS011;1272;53.332;9.860;2022-10-16T08:24:38;2.83;;;2.63;;
2522;SDS011;1272;53.332;9.860;2022-10-16T08:27:04;5.20;;;2.50;;
2522;SDS011;1272;53.332;9.860;2022-10-16T08:29:30;5.43;;;2.80;;
2522;SDS011;1272;53.332;9.860;2022-10-16T08:31:56;4.70;;;2.93;;
2522;SDS011;1272;53.332;9.860;2022-10-16T08:34:21;6.63;;;2.93;;
2522;SDS011;1272;53.332;9.860;2022-10-16T08:36:47;3.20;;;3.00;;
2522;SDS011;1272;53.332;9.860;2022-10-16T08:39:12;2.90;;;2.57;;
2522;SDS011;1272;53.332;9.860;2022-10-16T08:50:13;2.50;;;2.30;;
2522;SDS011;1272;53.332;9.860;2022-10-16T08:52:43;2.13;;;2.03;;
2522;SDS011;1272;53.332;9.860;2022-10-16T08:55:45;4.30;;;2.53;;
2522;SDS011;1272;53.332;9.860;2022-10-16T08:58:10;3.50;;;2.40;;
2522;SDS011;1272;53.332;9.860;2022-10-16T09:00:39;3.93;;;2.67;;
2522;SDS011;1272;53.332;9.860;2022-10-16T09:05:52;2.53;;;2.33;;
2522;SDS011;1272;53.332;9.860;2022-10-16T09:10:59;2.40;;;2.20;;
2522;SDS011;1272;53.332;9.860;2022-10-16T09:13:48;1.80;;;1.70;;
2522;SDS011;1272;53.332;9.860;2022-10-16T09:16:27;2.87;;;2.50;;
2522;SDS011;1272;53.332;9.860;2022-10-16T09:18:56;3.80;;;2.27;;
2522;SDS011;1272;53.332;9.860;2022-10-16T09:21:41;2.30;;;1.70;;
2522;SDS011;1272;53.332;9.860;2022-10-16T09:24:13;1.70;;;1.60;;
2522;SDS011;1272;53.332;9.860;2022-10-16T09:26:42;3.93;;;2.37;;
2522;SDS011;1272;53.332;9.860;2022-10-16T09:29:11;2.00;;;1.80;;
2522;SDS011;1272;53.332;9.860;2022-10-16T09:31:41;3.23;;;1.80;;
2522;SDS011;1272;53.332;9.860;2022-10-16T09:37:09;1.70;;;1.60;;
2522;SDS011;1272;53.332;9.860;2022-10-16T09:39:44;2.20;;;1.97;;
2522;SDS011;1272;53.332;9.860;2022-10-16T09:42:17;1.93;;;1.80;;
2522;SDS011;1272;53.332;9.860;2022-10-16T09:44:49;4.47;;;1.93;;
2522;SDS011;1272;53.332;9.860;2022-10-16T09:47:19;2.93;;;2.67;;
2522;SDS011;1272;53.332;9.860;2022-10-16T09:49:55;5.57;;;1.93;;
2522;SDS011;1272;53.332;9.860;2022-10-16T09:52:24;2.10;;;1.87;;
2522;SDS011;1272;53.332;9.860;2022-10-16T09:54:51;2.00;;;1.43;;
2522;SDS011;1272;53.332;9.860;2022-10-16T09:57:18;8.93;;;1.57;;
2522;SDS011;1272;53.332;9.860;2022-10-16T09:59:48;3.33;;;1.80;;
2522;SDS011;1272;53.332;9.860;2022-10-16T10:02:17;5.47;;;1.70;;
2522;SDS011;1272;53.332;9.860;2022-10-16T10:04:50;2.40;;;1.40;;
2522;SDS011;1272;53.332;9.860;2022-10-16T10:07:20;2.70;;;1.60;;
2522;SDS011;1272;53.332;9.860;2022-10-16T10:09:50;1.77;;;1.50;;
2522;SDS011;1272;53.332;9.860;2022-10-16T10:12:27;1.40;;;1.30;;
2522;SDS011;1272;53.332;9.860;2022-10-16T10:14:57;3.57;;;1.40;;
2522;SDS011;1272;53.332;9.860;2022-10-16T10:17:28;2.53;;;1.70;;
2522;SDS011;1272;53.332;9.860;2022-10-16T10:19:58;4.73;;;1.13;;
2522;SDS011;1272;53.332;9.860;2022-10-16T10:22:43;1.50;;;1.40;;
2522;SDS011;1272;53.332;9.860;2022-10-16T10:32:43;3.97;;;1.40;;
2522;SDS011;1272;53.332;9.860;2022-10-16T10:46:51;5.10;;;1.50;;
2522;SDS011;1272;53.332;9.860;2022-10-16T10:52:30;2.23;;;1.17;;
2522;SDS011;1272;53.332;9.860;2022-10-16T11:00:40;2.53;;;1.10;;
2522;SDS011;1272;53.332;9.860;2022-10-16T11:06:11;3.63;;;1.73;;
2522;SDS011;1272;53.332;9.860;2022-10-16T11:08:46;2.90;;;1.50;;
2522;SDS011;1272;53.332;9.860;2022-10-16T11:11:20;2.23;;;1.03;;
2522;SDS011;1272;53.332;9.860;2022-10-16T11:16:30;2.60;;;1.20;;
2522;SDS011;1272;53.332;9.860;2022-10-16T11:19:02;2.40;;;1.50;;
2522;SDS011;1272;53.332;9.860;2022-10-16T11:21:50;5.60;;;1.50;;
2522;SDS011;1272;53.332;9.860;2022-10-16T11:27:20;3.40;;;1.27;;
2522;SDS011;1272;53.332;9.860;2022-10-16T11:30:02;1.57;;;1.47;;
2522;SDS011;1272;53.332;9.860;2022-10-16T11:40:45;2.30;;;1.13;;
2522;SDS011;1272;53.332;9.860;2022-10-16T11:43:17;3.27;;;1.10;;
2522;SDS011;1272;53.332;9.860;2022-10-16T11:45:49;2.43;;;1.23;;
2522;SDS011;1272;53.332;9.860;2022-10-16T11:51:17;2.13;;;1.00;;
2522;SDS011;1272;53.332;9.860;2022-10-16T11:53:48;5.60;;;1.00;;
2522;SDS011;1272;53.332;9.860;2022-10-16T11:56:20;4.20;;;1.63;;
2522;SDS011;1272;53.332;9.860;2022-10-16T11:59:00;2.10;;;1.57;;
2522;SDS011;1272;53.332;9.860;2022-10-16T12:01:42;2.80;;;1.30;;
2522;SDS011;1272;53.332;9.860;2022-10-16T12:04:38;3.43;;;1.20;;
2522;SDS011;1272;53.332;9.860;2022-10-16T12:07:17;1.83;;;1.67;;
2522;SDS011;1272;53.332;9.860;2022-10-16T12:09:46;3.40;;;1.10;;
2522;SDS011;1272;53.332;9.860;2022-10-16T12:15:25;2.07;;;1.40;;
2522;SDS011;1272;53.332;9.860;2022-10-16T12:17:51;2.10;;;1.10;;
2522;SDS011;1272;53.332;9.860;2022-10-16T12:22:57;1.50;;;1.20;;
2522;SDS011;1272;53.332;9.860;2022-10-16T12:27:54;3.73;;;1.20;;
2522;SDS011;1272;53.332;9.860;2022-10-16T12:30:34;3.90;;;1.00;;
2522;SDS011;1272;53.332;9.860;2022-10-16T12:35:46;3.00;;;1.70;;
2522;SDS011;1272;53.332;9.860;2022-10-16T12:38:15;6.03;;;1.13;;
2522;SDS011;1272;53.332;9.860;2022-10-16T12:40:47;4.53;;;1.10;;
2522;SDS011;1272;53.332;9.860;2022-10-16T12:43:37;6.77;;;2.10;;
2522;SDS011;1272;53.332;9.860;2022-10-16T12:48:39;2.10;;;1.67;;
2522;SDS011;1272;53.332;9.860;2022-10-16T12:54:04;2.60;;;1.30;;
2522;SDS011;1272;53.332;9.860;2022-10-16T12:59:38;2.80;;;1.10;;
2522;SDS011;1272;53.332;9.860;2022-10-16T13:05:12;3.80;;;1.03;;
2522;SDS011;1272;53.332;9.860;2022-10-16T13:08:30;3.47;;;1.23;;
2522;SDS011;1272;53.332;9.860;2022-10-16T13:11:11;1.97;;;1.20;;
2522;SDS011;1272;53.332;9.860;2022-10-16T13:24:57;6.33;;;2.47;;
2522;SDS011;1272;53.332;9.860;2022-10-16T13:27:44;2.93;;;1.17;;
2522;SDS011;1272;53.332;9.860;2022-10-16T13:30:19;3.53;;;1.73;;
2522;SDS011;1272;53.332;9.860;2022-10-16T13:35:35;2.13;;;1.30;;
2522;SDS011;1272;53.332;9.860;2022-10-16T13:38:14;4.73;;;1.00;;
2522;SDS011;1272;53.332;9.860;2022-10-16T13:43:50;5.93;;;1.70;;
2522;SDS011;1272;53.332;9.860;2022-10-16T13:46:19;2.80;;;1.40;;
2522;SDS011;1272;53.332;9.860;2022-10-16T13:51:25;2.70;;;1.50;;
2522;SDS011;1272;53.332;9.860;2022-10-16T13:53:52;3.73;;;1.37;;
2522;SDS011;1272;53.332;9.860;2022-10-16T13:56:22;3.67;;;1.90;;
2522;SDS011;1272;53.332;9.860;2022-10-16T13:59:04;3.80;;;1.83;;
2522;SDS011;1272;53.332;9.860;2022-10-16T14:01:39;5.63;;;1.50;;
2522;SDS011;1272;53.332;9.860;2022-10-16T14:04:10;1.93;;;1.23;;
2522;SDS011;1272;53.332;9.860;2022-10-16T14:06:40;3.37;;;1.17;;
2522;SDS011;1272;53.332;9.860;2022-10-16T14:09:26;1.87;;;1.37;;
2522;SDS011;1272;53.332;9.860;2022-10-16T14:11:55;4.10;;;1.37;;
2522;SDS011;1272;53.332;9.860;2022-10-16T14:14:42;1.43;;;1.00;;
2522;SDS011;1272;53.332;9.860;2022-10-16T14:17:19;2.70;;;1.20;;
2522;SDS011;1272;53.332;9.860;2022-10-16T14:19:53;2.53;;;1.30;;
2522;SDS011;1272;53.332;9.860;2022-10-16T14:22:27;3.67;;;1.10;;
2522;SDS011;1272;53.332;9.860;2022-10-16T14:24:56;2.97;;;1.20;;
2522;SDS011;1272;53.332;9.860;2022-10-16T14:27:31;3.90;;;1.17;;
2522;SDS011;1272;53.332;9.860;2022-10-16T14:32:52;1.43;;;1.20;;
2522;SDS011;1272;53.332;9.860;2022-10-16T14:35:30;1.57;;;1.23;;
2522;SDS011;1272;53.332;9.860;2022-10-16T14:38:00;3.73;;;1.40;;
2522;SDS011;1272;53.332;9.860;2022-10-16T14:40:29;4.53;;;1.10;;
2522;SDS011;1272;53.332;9.860;2022-10-16T14:43:00;2.30;;;1.10;;
2522;SDS011;1272;53.332;9.860;2022-10-16T14:45:28;1.97;;;1.73;;
2522;SDS011;1272;53.332;9.860;2022-10-16T14:48:06;1.20;;;0.80;;
2522;SDS011;1272;53.332;9.860;2022-10-16T14:50:42;1.57;;;0.90;;
2522;SDS011;1272;53.332;9.860;2022-10-16T14:53:10;1.40;;;1.20;;
2522;SDS011;1272;53.332;9.860;2022-10-16T14:55:37;3.90;;;1.40;;
2522;SDS011;1272;53.332;9.860;2022-10-16T14:58:03;5.53;;;1.57;;
2522;SDS011;1272;53.332;9.860;2022-10-16T15:00:32;1.83;;;1.07;;
2522;SDS011;1272;53.332;9.860;2022-10-16T15:02:57;3.90;;;1.20;;
2522;SDS011;1272;53.332;9.860;2022-10-16T15:05:24;2.43;;;0.93;;
2522;SDS011;1272;53.332;9.860;2022-10-16T15:07:52;4.83;;;1.17;;
2522;SDS011;1272;53.332;9.860;2022-10-16T15:10:21;3.33;;;0.90;;
2522;SDS011;1272;53.332;9.860;2022-10-16T15:12:49;2.80;;;1.20;;
2522;SDS011;1272;53.332;9.860;2022-10-16T15:17:52;4.33;;;1.80;;
2522;SDS011;1272;53.332;9.860;2022-10-16T15:20:22;4.20;;;2.40;;
2522;SDS011;1272;53.332;9.860;2022-10-16T15:22:49;2.00;;;1.77;;
2522;SDS011;1272;53.332;9.860;2022-10-16T15:25:29;2.20;;;1.13;;
2522;SDS011;1272;53.332;9.860;2022-10-16T15:28:04;8.40;;;1.90;;
2522;SDS011;1272;53.332;9.860;2022-10-16T15:30:30;3.60;;;3.00;;
2522;SDS011;1272;53.332;9.860;2022-10-16T15:32:56;5.73;;;2.90;;
2522;SDS011;1272;53.332;9.860;2022-10-16T15:35:22;2.57;;;1.83;;
2522;SDS011;1272;53.332;9.860;2022-10-16T15:37:48;2.40;;;1.60;;
2522;SDS011;1272;53.332;9.860;2022-10-16T15:40:17;3.73;;;2.40;;
2522;SDS011;1272;53.332;9.860;2022-10-16T15:42:44;4.30;;;3.10;;
2522;SDS011;1272;53.332;9.860;2022-10-16T15:45:10;3.00;;;2.20;;
2522;SDS011;1272;53.332;9.860;2022-10-16T15:47:36;2.30;;;1.70;;
2522;SDS011;1272;53.332;9.860;2022-10-16T15:50:02;2.50;;;2.40;;
2522;SDS011;1272;53.332;9.860;2022-10-16T15:52:29;4.07;;;1.90;;
2522;SDS011;1272;53.332;9.860;2022-10-16T15:54:56;4.00;;;2.00;;
2522;SDS011;1272;53.332;9.860;2022-10-16T15:57:22;7.03;;;2.40;;
2522;SDS011;1272;53.332;9.860;2022-10-16T15:59:48;2.70;;;1.70;;
2522;SDS011;1272;53.332;9.860;2022-10-16T16:02:14;3.73;;;2.20;;
2522;SDS011;1272;53.332;9.860;2022-10-16T16:04:40;2.63;;;1.90;;
2522;SDS011;1272;53.332;9.860;2022-10-16T16:07:06;2.37;;;1.87;;
2522;SDS011;1272;53.332;9.860;2022-10-16T16:09:34;2.00;;;1.60;;
2522;SDS011;1272;53.332;9.860;2022-10-16T16:12:00;2.70;;;2.00;;
2522;SDS011;1272;53.332;9.860;2022-10-16T16:14:26;3.23;;;2.33;;
2522;SDS011;1272;53.332;9.860;2022-10-16T16:16:55;3.17;;;1.70;;
2522;SDS011;1272;53.332;9.860;2022-10-16T16:19:22;2.03;;;1.83;;
2522;SDS011;1272;53.332;9.860;2022-10-16T16:21:48;4.00;;;2.83;;
2522;SDS011;1272;53.332;9.860;2022-10-16T16:24:15;4.30;;;2.30;;
2522;SDS011;1272;53.332;9.860;2022-10-16T16:26:41;5.23;;;1.93;;
2522;SDS011;1272;53.332;9.860;2022-10-16T16:29:12;3.63;;;1.70;;
2522;SDS011;1272;53.332;9.860;2022-10-16T16:31:38;2.33;;;1.77;;
2522;SDS011;1272;53.332;9.860;2022-10-16T16:34:05;3.80;;;1.70;;
2522;SDS011;1272;53.332;9.860;2022-10-16T16:36:31;5.33;;;1.90;;
2522;SDS011;1272;53.332;9.860;2022-10-16T16:38:57;4.20;;;2.47;;
2522;SDS011;1272;53.332;9.860;2022-10-16T16:41:24;4.50;;;2.47;;
2522;SDS011;1272;53.332;9.860;2022-10-16T16:43:52;5.50;;;2.33;;
2522;SDS011;1272;53.332;9.860;2022-10-16T16:46:19;5.27;;;2.27;;
2522;SDS011;1272;53.332;9.860;2022-10-16T16:48:45;2.90;;;1.97;;
2522;SDS011;1272;53.332;9.860;2022-10-16T16:51:13;3.63;;;1.90;;
2522;SDS011;1272;53.332;9.860;2022-10-16T16:53:44;3.97;;;2.33;;
2522;SDS011;1272;53.332;9.860;2022-10-16T16:56:12;5.27;;;2.50;;
2522;SDS011;1272;53.332;9.860;2022-10-16T16:58:37;3.60;;;2.10;;
2522;SDS011;1272;53.332;9.860;2022-10-16T17:01:08;2.13;;;2.00;;
2522;SDS011;1272;53.332;9.860;2022-10-16T17:03:34;5.80;;;2.00;;
2522;SDS011;1272;53.332;9.860;2022-10-16T17:06:02;4.40;;;2.30;;
2522;SDS011;1272;53.332;9.860;2022-10-16T17:08:30;5.53;;;1.90;;
2522;SDS011;1272;53.332;9.860;2022-10-16T17:10:56;2.23;;;2.07;;
2522;SDS011;1272;53.332;9.860;2022-10-16T17:13:23;2.40;;;2.20;;
2522;SDS011;1272;53.332;9.860;2022-10-16T17:15:51;3.63;;;3.00;;
2522;SDS011;1272;53.332;9.860;2022-10-16T17:18:18;3.80;;;2.60;;
2522;SDS011;1272;53.332;9.860;2022-10-16T17:20:44;2.80;;;2.60;;
2522;SDS011;1272;53.332;9.860;2022-10-16T17:23:10;4.93;;;3.17;;
2522;SDS011;1272;53.332;9.860;2022-10-16T17:25:37;4.63;;;3.07;;
2522;SDS011;1272;53.332;9.860;2022-10-16T17:28:03;4.80;;;2.20;;
2522;SDS011;1272;53.332;9.860;2022-10-16T17:30:30;4.13;;;2.53;;
2522;SDS011;1272;53.332;9.860;2022-10-16T17:32:58;5.13;;;2.53;;
2522;SDS011;1272;53.332;9.860;2022-10-16T17:35:24;6.77;;;3.10;;
2522;SDS011;1272;53.332;9.860;2022-10-16T17:37:50;6.17;;;2.93;;
2522;SDS011;1272;53.332;9.860;2022-10-16T17:40:16;4.03;;;2.90;;